Time;durP1;ratioP1;P1;durP2;ratioP2;P2;SDS_P1;SDS_P2;PMS_P1;PMS_P2;Temp;Humidity;BMP_temperature;BMP_pressure;BME280_temperature;BME280_humidity;BME280_pressure;Samples;Min_cycle;Max_cycle;Signal;HPM_P1;HPM_P2
2022/06/25 00:01:15;;;;;;;;;;;;;;;17.81;79.36;100781.28;5084924;28;19912;-53
2022/06/25 00:03:41;;;;;;;;;;;;;;;17.81;79.55;100775.06;5082852;28;20401;-52
2022/06/25 00:06:06;;;;;;;;;;;;;;;17.78;79.71;100787.09;5090139;28;19934;-52
2022/06/25 00:08:33;;;;;;;;;;;;;;;17.75;79.59;100787.53;5086959;28;20302;-52
2022/06/25 00:10:58;;;;;;;;;;;;;;;17.72;79.57;100779.91;5085194;28;19912;-54
2022/06/25 00:13:23;;;;;;;;;;;;;;;17.72;79.88;100779.09;5088955;28;20330;-53
2022/06/25 00:15:48;;;;;;;;;;;;;;;17.71;79.71;100785.50;5089636;28;20011;-51
2022/06/25 00:18:14;;;;;;;;;;;;;;;17.68;79.82;100785.94;5089313;28;19912;-53
2022/06/25 00:20:40;;;;;;;;;;;;;;;17.64;79.86;100797.09;5082838;28;19918;-53
2022/06/25 00:23:05;;;;;;;;;;;;;;;17.60;79.82;100792.34;5088597;28;19927;-52
2022/06/25 00:25:30;;;;;;;;;;;;;;;17.60;80.06;100787.78;5088274;28;19916;-54
2022/06/25 00:27:56;;;;;;;;;;;;;;;17.58;80.03;100787.19;5086201;28;20363;-54
2022/06/25 00:30:21;;;;;;;;;;;;;;;17.58;79.99;100781.00;5086100;28;19912;-55
2022/06/25 00:32:46;;;;;;;;;;;;;;;17.56;80.03;100785.78;5086295;28;19985;-53
2022/06/25 00:35:11;;;;;;;;;;;;;;;17.51;80.22;100781.06;5088815;28;19912;-53
2022/06/25 00:37:36;;;;;;;;;;;;;;;17.47;80.45;100785.22;5084113;28;19919;-52
2022/06/25 00:40:02;;;;;;;;;;;;;;;17.44;80.28;100788.34;5086946;28;19912;-55
2022/06/25 00:42:28;;;;;;;;;;;;;;;17.43;80.75;100796.63;5087118;28;19919;-52
2022/06/25 00:44:55;;;;;;;;;;;;;;;17.38;80.87;100786.53;5087065;28;20006;-52
2022/06/25 00:47:21;;;;;;;;;;;;;;;17.36;81.04;100795.84;5086406;28;21273;-52
2022/06/25 00:49:46;;;;;;;;;;;;;;;17.34;81.21;100790.66;5085532;28;19912;-53
2022/06/25 00:52:12;;;;;;;;;;;;;;;17.31;81.36;100794.59;5085831;28;20006;-54
2022/06/25 00:54:38;;;;;;;;;;;;;;;17.27;81.52;100800.63;5088257;28;19919;-53
2022/06/25 00:57:05;;;;;;;;;;;;;;;17.25;81.33;100797.31;5086694;28;20286;-55
2022/06/25 00:59:33;;;;;;;;;;;;;;;17.22;81.28;100792.41;5086315;28;19943;-54
2022/06/25 01:01:58;;;;;;;;;;;;;;;17.17;81.98;100801.09;5085233;28;20255;-54
2022/06/25 01:04:24;;;;;;;;;;;;;;;17.14;82.08;100811.44;5088087;28;19994;-52
2022/06/25 01:06:49;;;;;;;;;;;;;;;17.13;82.07;100809.78;5086882;28;20363;-52
2022/06/25 01:09:14;;;;;;;;;;;;;;;17.09;82.25;100812.09;5088969;28;19911;-52
2022/06/25 01:11:39;;;;;;;;;;;;;;;17.08;82.22;100812.31;5079873;28;19966;-54
2022/06/25 01:14:09;;;;;;;;;;;;;;;17.03;82.36;100813.75;5086816;28;19912;-52
2022/06/25 01:16:34;;;;;;;;;;;;;;;17.00;82.32;100807.97;5087976;28;19968;-53
2022/06/25 01:19:03;;;;;;;;;;;;;;;16.97;82.38;100816.47;5087445;28;20010;-53
2022/06/25 01:21:29;;;;;;;;;;;;;;;16.96;82.75;100809.44;5079914;28;19912;-54
2022/06/25 01:23:54;;;;;;;;;;;;;;;16.93;82.37;100821.44;5087419;28;19916;-53
2022/06/25 01:26:19;;;;;;;;;;;;;;;16.85;82.38;100816.31;5087884;28;19912;-54
2022/06/25 01:28:45;;;;;;;;;;;;;;;16.91;82.47;100828.88;5087992;28;20455;-54
2022/06/25 01:31:10;;;;;;;;;;;;;;;16.88;82.26;100840.03;5083904;28;19919;-53
2022/06/25 01:33:35;;;;;;;;;;;;;;;16.87;82.50;100842.91;5088593;28;20418;-53
2022/06/25 01:36:01;;;;;;;;;;;;;;;16.84;82.76;100833.44;5087420;28;20441;-52
2022/06/25 01:38:26;;;;;;;;;;;;;;;16.80;83.13;100832.22;5086991;28;19915;-54
2022/06/25 01:40:51;;;;;;;;;;;;;;;16.78;83.08;100836.16;5080278;28;19912;-55
2022/06/25 01:43:16;;;;;;;;;;;;;;;16.75;83.38;100842.72;5082459;28;19926;-53
2022/06/25 01:45:42;;;;;;;;;;;;;;;16.71;83.43;100850.38;5085484;28;19912;-52
2022/06/25 01:48:07;;;;;;;;;;;;;;;16.69;83.44;100844.41;5080614;28;19927;-54
2022/06/25 01:50:33;;;;;;;;;;;;;;;16.68;83.36;100847.31;5085444;28;19952;-53
2022/06/25 01:52:58;;;;;;;;;;;;;;;16.67;83.29;100851.84;5085538;28;20363;-52
2022/06/25 01:55:23;;;;;;;;;;;;;;;16.66;83.35;100858.25;5087038;28;19912;-53
2022/06/25 01:57:49;;;;;;;;;;;;;;;16.65;83.32;100856.56;5086820;28;20014;-54
2022/06/25 02:00:19;;;;;;;;;;;;;;;16.64;83.20;100859.44;5082303;28;20326;-53
2022/06/25 02:02:45;;;;;;;;;;;;;;;16.62;83.42;100862.34;5086977;28;19966;-53
2022/06/25 02:05:11;;;;;;;;;;;;;;;16.62;83.57;100866.88;5086315;28;19916;-53
2022/06/25 02:07:37;;;;;;;;;;;;;;;16.60;83.35;100874.31;5086795;28;20469;-54
2022/06/25 02:10:02;;;;;;;;;;;;;;;16.58;83.33;100877.22;5086081;28;19999;-52
2022/06/25 02:12:27;;;;;;;;;;;;;;;16.56;83.39;100875.78;5084856;28;19912;-51
2022/06/25 02:14:52;;;;;;;;;;;;;;;16.55;83.55;100877.63;5088066;28;19930;-53
2022/06/25 02:17:18;;;;;;;;;;;;;;;16.54;83.56;100881.34;5086897;28;19912;-55
2022/06/25 02:19:43;;;;;;;;;;;;;;;16.54;83.17;100885.88;5083307;28;19950;-54
2022/06/25 02:22:14;;;;;;;;;;;;;;;16.55;83.40;100887.53;5081781;28;20007;-54
2022/06/25 02:24:39;;;;;;;;;;;;;;;16.55;83.17;100893.72;5082625;28;20282;-51
2022/06/25 02:27:04;;;;;;;;;;;;;;;16.57;83.11;100888.13;5082642;28;20381;-52
2022/06/25 02:29:30;;;;;;;;;;;;;;;16.57;82.90;100882.78;5083302;28;19919;-52
2022/06/25 02:31:55;;;;;;;;;;;;;;;16.60;83.01;100887.72;5081196;28;20362;-54
2022/06/25 02:34:20;;;;;;;;;;;;;;;16.61;82.86;100894.72;5086944;28;19919;-53
2022/06/25 02:36:45;;;;;;;;;;;;;;;16.59;82.68;100902.97;5086866;28;19918;-54
2022/06/25 02:39:10;;;;;;;;;;;;;;;16.61;82.45;100900.91;5084756;28;19919;-53
2022/06/25 02:41:35;;;;;;;;;;;;;;;16.63;82.58;100906.91;5084723;28;19973;-51
2022/06/25 02:44:01;;;;;;;;;;;;;;;16.63;82.45;100906.91;5088153;28;20011;-54
2022/06/25 02:46:26;;;;;;;;;;;;;;;16.64;82.17;100913.91;5087048;28;20015;-52
2022/06/25 02:48:51;;;;;;;;;;;;;;;16.66;82.07;100911.03;5084204;28;19912;-52
2022/06/25 02:51:16;;;;;;;;;;;;;;;16.67;81.93;100918.06;5082984;28;20412;-53
2022/06/25 02:53:41;;;;;;;;;;;;;;;16.65;82.15;100922.78;5082977;28;19915;-53
2022/06/25 02:58:56;;;;;;;;;;;;;;;16.62;81.91;100920.50;5062142;28;19916;-53
2022/06/25 03:01:22;;;;;;;;;;;;;;;16.63;82.19;100919.47;5082342;28;19912;-54
2022/06/25 03:03:47;;;;;;;;;;;;;;;16.63;82.29;100912.25;5083060;28;19927;-52
2022/06/25 03:06:12;;;;;;;;;;;;;;;16.62;81.99;100928.56;5085255;28;19935;-53
2022/06/25 03:08:37;;;;;;;;;;;;;;;16.57;81.87;100928.34;5087317;28;20220;-51
2022/06/25 03:11:03;;;;;;;;;;;;;;;16.53;82.01;100929.81;5089167;28;20613;-51
2022/06/25 03:13:29;;;;;;;;;;;;;;;16.53;82.15;100927.13;5091258;28;20335;-53
2022/06/25 03:15:54;;;;;;;;;;;;;;;16.49;81.96;100923.22;5087123;28;19919;-53
2022/06/25 03:18:19;;;;;;;;;;;;;;;16.49;82.01;100925.91;5083648;28;19941;-54
2022/06/25 03:20:45;;;;;;;;;;;;;;;16.48;81.83;100935.78;5087900;28;20303;-54
2022/06/25 03:23:10;;;;;;;;;;;;;;;16.48;82.12;100930.44;5088392;28;20007;-52
2022/06/25 03:25:35;;;;;;;;;;;;;;;16.50;82.04;100928.38;5090933;28;19920;-52
2022/06/25 03:28:00;;;;;;;;;;;;;;;16.51;81.98;100934.56;5088009;28;19947;-53
2022/06/25 03:30:25;;;;;;;;;;;;;;;16.53;81.88;100933.31;5087893;28;19976;-52
2022/06/25 03:32:51;;;;;;;;;;;;;;;16.55;81.46;100936.59;5085926;28;20455;-54
2022/06/25 03:35:16;;;;;;;;;;;;;;;16.60;81.77;100938.66;5089749;28;19920;-54
2022/06/25 03:37:41;;;;;;;;;;;;;;;16.61;81.77;100945.69;5088876;28;19912;-52
2022/06/25 03:40:06;;;;;;;;;;;;;;;16.66;81.40;100945.91;5089124;28;20310;-52
2022/06/25 03:42:32;;;;;;;;;;;;;;;16.71;81.14;100940.72;5088630;28;19920;-53
2022/06/25 03:44:57;;;;;;;;;;;;;;;16.76;81.13;100930.19;5091021;28;19978;-54
2022/06/25 03:47:22;;;;;;;;;;;;;;;16.79;81.02;100932.50;5089227;28;19920;-52
2022/06/25 03:49:47;;;;;;;;;;;;;;;16.84;80.72;100934.53;5086186;28;19922;-52
2022/06/25 03:52:12;;;;;;;;;;;;;;;16.87;80.79;100939.50;5085613;28;20500;-52
2022/06/25 03:54:38;;;;;;;;;;;;;;;16.89;80.59;100948.97;5083814;28;20151;-51
2022/06/25 03:57:03;;;;;;;;;;;;;;;16.92;80.61;100943.19;5084937;28;19912;-53
2022/06/25 03:59:29;;;;;;;;;;;;;;;16.96;80.64;100948.94;5084950;28;20004;-53
2022/06/25 04:01:54;;;;;;;;;;;;;;;16.95;80.81;100958.84;5087957;28;19922;-54
2022/06/25 04:04:19;;;;;;;;;;;;;;;16.97;80.53;100953.28;5082197;28;19917;-52
2022/06/25 04:06:45;;;;;;;;;;;;;;;16.96;80.51;100944.41;5086714;28;20014;-53
2022/06/25 04:09:10;;;;;;;;;;;;;;;16.99;80.59;100959.25;5083032;28;20011;-54
2022/06/25 04:11:35;;;;;;;;;;;;;;;16.99;80.56;100949.34;5083855;28;20090;-54
2022/06/25 04:14:01;;;;;;;;;;;;;;;17.04;80.51;100946.84;5080890;28;19912;-51
2022/06/25 04:16:26;;;;;;;;;;;;;;;17.08;80.57;100946.47;5078485;28;19922;-54
2022/06/25 04:18:51;;;;;;;;;;;;;;;17.12;80.21;100953.88;5081350;28;19920;-52
2022/06/25 04:21:16;;;;;;;;;;;;;;;17.14;80.78;100948.31;5080276;28;19916;-54
2022/06/25 04:23:41;;;;;;;;;;;;;;;17.09;80.62;100950.78;5082758;28;20428;-55
2022/06/25 04:26:07;;;;;;;;;;;;;;;17.01;80.92;100949.97;5090062;28;20350;-53
2022/06/25 04:31:16;;;;;;;;;;;;;;;16.97;80.97;100959.47;5080023;28;19993;-55
2022/06/25 04:33:41;;;;;;;;;;;;;;;16.96;80.92;100962.38;5080128;28;20282;-54
2022/06/25 04:36:06;;;;;;;;;;;;;;;16.95;81.35;100966.09;5075535;28;19942;-54
2022/06/25 04:38:32;;;;;;;;;;;;;;;16.95;81.13;100969.59;5082771;28;19912;-53
2022/06/25 04:40:57;;;;;;;;;;;;;;;16.95;81.12;100974.13;5078802;28;20275;-54
2022/06/25 04:43:23;;;;;;;;;;;;;;;16.96;81.34;100973.09;5071573;28;20314;-53
2022/06/25 04:45:48;;;;;;;;;;;;;;;16.95;81.02;100974.13;5078383;28;20007;-53
2022/06/25 04:48:13;;;;;;;;;;;;;;;16.97;81.51;100975.56;5080011;28;20508;-52
2022/06/25 04:50:41;;;;;;;;;;;;;;;16.99;81.26;100976.19;5088795;28;19916;-54
2022/06/25 04:53:06;;;;;;;;;;;;;;;17.02;81.37;100982.97;5089012;28;20391;-53
2022/06/25 04:55:31;;;;;;;;;;;;;;;17.03;81.19;100985.47;5085937;28;19938;-52
2022/06/25 04:57:57;;;;;;;;;;;;;;;17.08;81.53;100984.03;5085124;28;19915;-53
2022/06/25 05:00:22;;;;;;;;;;;;;;;17.12;81.33;100987.94;5083923;28;20026;-52
2022/06/25 05:02:47;;;;;;;;;;;;;;;17.14;81.59;100988.56;5083326;28;19962;-54
2022/06/25 05:05:12;;;;;;;;;;;;;;;17.18;81.39;100989.78;5083432;28;19912;-53
2022/06/25 05:07:37;;;;;;;;;;;;;;;17.21;81.52;100992.03;5084461;28;19912;-52
2022/06/25 05:10:03;;;;;;;;;;;;;;;17.21;81.19;101002.78;5084169;28;19943;-54
2022/06/25 05:15:12;;;;;;;;;;;;;;;17.27;81.51;100999.25;5084942;28;19918;-53
2022/06/25 05:17:38;;;;;;;;;;;;;;;17.30;81.30;100996.97;5082481;28;20313;-54
2022/06/25 05:20:03;;;;;;;;;;;;;;;17.32;81.25;101004.81;5085062;28;19926;-54
2022/06/25 05:22:28;;;;;;;;;;;;;;;17.35;81.21;101007.09;5081672;28;19912;-56
2022/06/25 05:24:54;;;;;;;;;;;;;;;17.32;80.85;100996.75;5085515;28;20291;-52
2022/06/25 05:27:19;;;;;;;;;;;;;;;17.40;80.98;101012.66;5084782;28;19926;-54
2022/06/25 05:29:44;;;;;;;;;;;;;;;17.41;80.79;101013.47;5083221;28;19911;-53
2022/06/25 05:32:10;;;;;;;;;;;;;;;17.40;80.83;101007.28;5083040;28;20325;-51
2022/06/25 05:34:35;;;;;;;;;;;;;;;17.43;80.87;101012.22;5082237;28;20568;-54
2022/06/25 05:37:00;;;;;;;;;;;;;;;17.46;80.87;101017.16;5079165;28;19919;-54
2022/06/25 05:39:25;;;;;;;;;;;;;;;17.46;80.55;101014.47;5080551;28;20108;-52
2022/06/25 05:41:50;;;;;;;;;;;;;;;17.48;80.76;101022.31;5082730;28;19998;-55
2022/06/25 05:44:16;;;;;;;;;;;;;;;17.50;80.67;101018.38;5079850;28;19916;-52
2022/06/25 05:46:41;;;;;;;;;;;;;;;17.55;80.76;101021.25;5078966;28;20366;-52
2022/06/25 05:49:06;;;;;;;;;;;;;;;17.59;80.73;101017.09;5084688;28;19923;-53
2022/06/25 05:51:31;;;;;;;;;;;;;;;17.63;80.58;101026.38;5078714;28;20519;-54
2022/06/25 05:53:56;;;;;;;;;;;;;;;17.67;80.47;101032.22;5087226;28;19951;-54
2022/06/25 05:56:21;;;;;;;;;;;;;;;17.70;80.28;101033.66;5085835;28;19961;-54
2022/06/25 05:58:47;;;;;;;;;;;;;;;17.71;80.17;101037.97;5086323;28;20386;-51
2022/06/25 06:01:12;;;;;;;;;;;;;;;17.72;80.06;101045.00;5084988;28;19918;-51
2022/06/25 06:03:37;;;;;;;;;;;;;;;17.72;80.18;101037.78;5086823;28;20014;-54
2022/06/25 06:06:03;;;;;;;;;;;;;;;17.73;80.01;101046.66;5085794;28;19981;-54
2022/06/25 06:08:28;;;;;;;;;;;;;;;17.76;80.12;101044.34;5084147;28;19990;-53
2022/06/25 06:10:54;;;;;;;;;;;;;;;17.79;79.66;101052.00;5085322;28;19994;-52
2022/06/25 06:13:19;;;;;;;;;;;;;;;17.83;79.75;101052.38;5088890;28;19937;-54
2022/06/25 06:15:44;;;;;;;;;;;;;;;17.86;79.87;101060.03;5086295;28;19915;-54
2022/06/25 06:18:09;;;;;;;;;;;;;;;17.91;79.82;101060.19;5085779;28;20010;-53
2022/06/25 06:20:34;;;;;;;;;;;;;;;17.98;79.84;101058.34;5086119;28;20006;-56
2022/06/25 06:22:59;;;;;;;;;;;;;;;18.00;79.84;101064.31;5062571;28;19928;-55
2022/06/25 06:25:25;;;;;;;;;;;;;;;18.05;79.52;101064.50;5061077;28;19935;-53
2022/06/25 06:27:50;;;;;;;;;;;;;;;18.09;79.57;101065.72;5061494;28;20022;-54
2022/06/25 06:30:15;;;;;;;;;;;;;;;18.15;79.63;101066.72;5059553;28;20469;-54
2022/06/25 06:32:40;;;;;;;;;;;;;;;18.22;79.27;101078.28;5061238;28;19920;-52
2022/06/25 06:35:06;;;;;;;;;;;;;;;18.23;79.20;101075.38;5072260;28;20018;-54
2022/06/25 06:37:31;;;;;;;;;;;;;;;18.27;79.43;101070.38;5080660;28;19918;-55
2022/06/25 06:39:56;;;;;;;;;;;;;;;18.32;79.01;101072.41;5079671;28;19916;-55
2022/06/25 06:42:22;;;;;;;;;;;;;;;18.31;78.57;101073.47;5084998;28;20347;-51
2022/06/25 06:44:47;;;;;;;;;;;;;;;18.33;78.44;101069.50;5086499;28;19924;-53
2022/06/25 06:47:12;;;;;;;;;;;;;;;18.38;78.28;101072.38;5083122;28;20131;-53
2022/06/25 06:49:38;;;;;;;;;;;;;;;18.38;77.54;101071.56;5087879;28;19916;-54
2022/06/25 06:52:03;;;;;;;;;;;;;;;18.39;78.02;101071.34;5085432;28;19943;-53
2022/06/25 06:54:29;;;;;;;;;;;;;;;18.42;77.92;101065.53;5084059;28;19912;-53
2022/06/25 06:56:55;;;;;;;;;;;;;;;18.40;77.82;101072.97;5085067;28;19936;-55
2022/06/25 06:59:20;;;;;;;;;;;;;;;18.38;77.91;101071.56;5083173;28;19967;-54
2022/06/25 07:01:45;;;;;;;;;;;;;;;18.44;78.32;101066.13;5079262;28;19998;-55
2022/06/25 07:04:11;;;;;;;;;;;;;;;18.49;77.96;101058.22;5082556;28;19916;-53
2022/06/25 07:06:36;;;;;;;;;;;;;;;18.55;78.36;101073.50;5091403;28;20018;-55
2022/06/25 07:09:01;;;;;;;;;;;;;;;18.61;78.32;101071.00;5091586;28;19916;-53
2022/06/25 07:11:29;;;;;;;;;;;;;;;18.67;78.15;101076.34;5089832;28;20291;-52
2022/06/25 07:13:56;;;;;;;;;;;;;;;18.66;77.27;101073.88;5091789;28;20275;-52
2022/06/25 07:16:21;;;;;;;;;;;;;;;18.67;77.37;101080.91;5089988;28;20006;-54
2022/06/25 07:18:46;;;;;;;;;;;;;;;18.70;77.49;101075.91;5090112;28;20014;-53
2022/06/25 07:21:11;;;;;;;;;;;;;;;18.77;77.39;101076.69;5090236;28;19947;-56
2022/06/25 07:23:37;;;;;;;;;;;;;;;18.79;76.63;101082.69;5090097;28;19973;-53
2022/06/25 07:26:02;;;;;;;;;;;;;;;18.79;76.74;101084.53;5091214;28;19915;-53
2022/06/25 07:28:27;;;;;;;;;;;;;;;18.79;76.76;101079.16;5088160;28;20007;-51
2022/06/25 07:30:52;;;;;;;;;;;;;;;18.79;76.35;101077.31;5087919;28;20306;-54
2022/06/25 07:33:17;;;;;;;;;;;;;;;18.88;76.75;101077.84;5088103;28;20018;-54
2022/06/25 07:35:43;;;;;;;;;;;;;;;19.00;77.19;101077.97;5088433;28;19915;-51
2022/06/25 07:38:08;;;;;;;;;;;;;;;19.09;76.37;101079.34;5089325;28;20221;-52
2022/06/25 07:40:33;;;;;;;;;;;;;;;19.17;76.27;101079.06;5089000;28;20003;-53
2022/06/25 07:42:58;;;;;;;;;;;;;;;19.29;76.25;101082.66;5087412;28;19965;-52
2022/06/25 07:45:23;;;;;;;;;;;;;;;19.40;76.16;101084.63;5088817;28;19998;-52
2022/06/25 07:47:48;;;;;;;;;;;;;;;19.48;76.08;101081.66;5087420;28;19916;-54
2022/06/25 07:52:58;;;;;;;;;;;;;;;19.65;75.70;101083.75;5089254;28;20002;-52
2022/06/25 07:55:24;;;;;;;;;;;;;;;19.65;74.60;101089.97;5089890;28;19995;-52
2022/06/25 07:57:49;;;;;;;;;;;;;;;19.62;74.81;101084.22;5089876;28;20003;-53
2022/06/25 08:00:14;;;;;;;;;;;;;;;19.57;74.70;101084.91;5086012;28;19947;-52
2022/06/25 08:02:40;;;;;;;;;;;;;;;19.50;74.66;101084.13;5079900;28;19912;-55
2022/06/25 08:05:05;;;;;;;;;;;;;;;19.44;74.39;101090.41;5082320;28;19996;-54
2022/06/25 08:07:30;;;;;;;;;;;;;;;19.38;74.26;101091.28;5080456;28;19959;-55
2022/06/25 08:09:55;;;;;;;;;;;;;;;19.25;74.14;101092.22;5082504;28;19916;-53
2022/06/25 08:12:21;;;;;;;;;;;;;;;19.21;74.24;101099.09;5082999;28;20512;-54
2022/06/25 08:14:46;;;;;;;;;;;;;;;19.18;74.31;101100.38;5084850;28;20374;-54
2022/06/25 08:17:11;;;;;;;;;;;;;;;19.12;74.23;101101.25;5087547;28;19908;-53
2022/06/25 08:19:36;;;;;;;;;;;;;;;19.10;74.35;101097.16;5079399;28;20278;-53
2022/06/25 08:22:02;;;;;;;;;;;;;;;19.07;74.59;101092.19;5077967;28;19969;-53
2022/06/25 08:24:27;;;;;;;;;;;;;;;19.09;74.70;101098.19;5078967;28;19919;-53
2022/06/25 08:26:52;;;;;;;;;;;;;;;19.10;74.98;101097.16;5074016;28;19930;-54
2022/06/25 08:29:17;;;;;;;;;;;;;;;19.10;74.35;101105.22;5078890;28;19966;-51
2022/06/25 08:31:42;;;;;;;;;;;;;;;19.12;74.61;101106.66;5085248;28;20374;-53
2022/06/25 08:34:07;;;;;;;;;;;;;;;19.17;74.78;101105.97;5084658;28;19920;-55
2022/06/25 08:36:33;;;;;;;;;;;;;;;19.21;74.86;101109.88;5079336;28;20297;-54
2022/06/25 08:38:58;;;;;;;;;;;;;;;19.24;74.73;101104.03;5084118;28;20032;-54
2022/06/25 08:41:24;;;;;;;;;;;;;;;19.27;74.49;101102.78;5074588;28;19927;-54
2022/06/25 08:43:49;;;;;;;;;;;;;;;19.35;74.69;101106.00;5085056;28;19916;-53
2022/06/25 08:46:14;;;;;;;;;;;;;;;19.42;74.81;101111.34;5082032;28;20348;-53
2022/06/25 08:48:42;;;;;;;;;;;;;;;19.43;74.19;101097.66;5080257;28;19923;-54
2022/06/25 08:51:08;;;;;;;;;;;;;;;19.42;74.16;101104.09;5078050;28;19919;-52
2022/06/25 08:53:34;;;;;;;;;;;;;;;19.45;74.24;101100.13;5082594;28;19923;-54
2022/06/25 08:55:59;;;;;;;;;;;;;;;19.54;74.54;101101.50;5078666;28;20036;-54
2022/06/25 08:58:25;;;;;;;;;;;;;;;19.64;74.23;101104.50;5080136;28;19935;-51
2022/06/25 09:00:50;;;;;;;;;;;;;;;19.77;73.70;101109.75;5077415;28;19931;-54
2022/06/25 09:03:15;;;;;;;;;;;;;;;19.96;73.97;101102.50;5083843;28;19927;-55
2022/06/25 09:05:41;;;;;;;;;;;;;;;20.21;73.35;101104.25;5076694;28;19916;-54
2022/06/25 09:08:07;;;;;;;;;;;;;;;20.35;73.21;101116.50;5087530;28;19960;-51
2022/06/25 09:10:33;;;;;;;;;;;;;;;20.51;71.99;101105.09;5086991;28;19912;-54
2022/06/25 09:12:59;;;;;;;;;;;;;;;20.58;71.70;101110.41;5083313;28;20094;-54
2022/06/25 09:15:27;;;;;;;;;;;;;;;20.56;70.90;101110.66;5075628;28;19919;-53
2022/06/25 09:17:52;;;;;;;;;;;;;;;20.45;70.48;101110.59;5081116;28;19912;-55
2022/06/25 09:20:18;;;;;;;;;;;;;;;20.39;70.38;101113.13;5077640;28;19923;-53
2022/06/25 09:22:57;;;;;;;;;;;;;;;20.37;70.60;101109.84;5075767;28;19927;-55
2022/06/25 09:25:26;;;;;;;;;;;;;;;20.46;71.35;101107.66;5081315;28;20007;-53
2022/06/25 09:27:51;;;;;;;;;;;;;;;20.48;70.35;101110.94;5083515;28;19912;-53
2022/06/25 09:30:19;;;;;;;;;;;;;;;20.50;70.79;101105.31;5081119;28;19951;-54
2022/06/25 09:32:54;;;;;;;;;;;;;;;20.59;71.37;101104.78;5081213;28;19912;-54
2022/06/25 09:35:32;;;;;;;;;;;;;;;20.67;70.50;101109.84;5081994;28;19959;-54
2022/06/25 09:38:04;;;;;;;;;;;;;;;20.62;70.13;101107.03;5083692;28;19964;-54
2022/06/25 09:40:29;;;;;;;;;;;;;;;20.61;70.33;101110.78;5060557;28;19912;-52
2022/06/25 09:42:55;;;;;;;;;;;;;;;20.60;70.10;101114.53;5078602;28;19922;-53
2022/06/25 09:45:20;;;;;;;;;;;;;;;20.59;70.27;101110.19;5079478;28;19912;-52
2022/06/25 09:47:46;;;;;;;;;;;;;;;20.58;69.94;101116.63;5078039;28;19916;-53
2022/06/25 09:50:16;;;;;;;;;;;;;;;20.53;69.58;101108.41;5079208;28;19912;-54
2022/06/25 09:52:55;;;;;;;;;;;;;;;20.54;69.73;101115.47;5079001;28;19923;-54
2022/06/25 09:55:21;;;;;;;;;;;;;;;20.55;69.90;101111.72;5077786;28;20287;-53
2022/06/25 09:57:46;;;;;;;;;;;;;;;20.61;69.92;101120.75;5078318;28;19916;-54
2022/06/25 10:00:14;;;;;;;;;;;;;;;20.58;69.52;101121.22;5078276;28;19969;-54
2022/06/25 10:02:40;;;;;;;;;;;;;;;20.55;69.24;101122.50;5076441;28;19995;-55
2022/06/25 10:05:05;;;;;;;;;;;;;;;20.54;69.25;101126.25;5080524;28;19916;-52
2022/06/25 10:10:17;;;;;;;;;;;;;;;20.63;70.05;101124.88;5083632;28;19962;-54
2022/06/25 10:12:42;;;;;;;;;;;;;;;20.80;70.64;101125.00;5071636;28;19915;-54
2022/06/25 10:15:07;;;;;;;;;;;;;;;20.90;70.47;101119.88;5084887;28;20264;-52
2022/06/25 10:17:33;;;;;;;;;;;;;;;20.94;69.89;101120.25;5081533;28;20003;-56
2022/06/25 10:19:59;;;;;;;;;;;;;;;21.07;70.33;101117.31;5079100;28;19919;-55
2022/06/25 10:22:24;;;;;;;;;;;;;;;21.20;70.04;101127.09;5081808;28;19912;-55
2022/06/25 10:24:50;;;;;;;;;;;;;;;21.18;68.64;101121.09;5081145;28;19920;-53
2022/06/25 10:27:15;;;;;;;;;;;;;;;21.15;68.47;101117.00;5081224;28;19927;-52
2022/06/25 10:29:51;;;;;;;;;;;;;;;21.24;68.48;101115.63;5081524;28;19919;-52
2022/06/25 10:32:17;;;;;;;;;;;;;;;21.33;68.34;101110.66;5075431;28;19927;-54
2022/06/25 10:34:51;;;;;;;;;;;;;;;21.46;68.28;101104.22;5078174;28;19916;-53
2022/06/25 10:37:17;;;;;;;;;;;;;;;21.67;68.86;101106.28;5083443;28;20018;-52
2022/06/25 10:39:42;;;;;;;;;;;;;;;21.92;68.48;101109.53;5082667;28;20006;-55
2022/06/25 10:44:55;;;;;;;;;;;;;;;22.39;66.78;101114.00;5085977;28;19969;-51
2022/06/25 10:47:36;;;;;;;;;;;;;;;22.31;65.90;101106.28;5086646;28;19926;-53
2022/06/25 10:50:28;;;;;;;;;;;;;;;22.23;65.18;101102.06;5083951;28;20362;-55
2022/06/25 10:53:02;;;;;;;;;;;;;;;22.20;65.26;101105.25;5082980;28;19916;-52
2022/06/25 10:55:28;;;;;;;;;;;;;;;22.39;65.61;101114.84;5088967;28;19915;-54
2022/06/25 10:58:12;;;;;;;;;;;;;;;22.51;64.56;101118.31;5085509;28;20002;-53
2022/06/25 11:00:55;;;;;;;;;;;;;;;22.58;62.51;101115.47;5089541;28;19916;-55
2022/06/25 11:03:32;;;;;;;;;;;;;;;22.78;62.13;101118.50;5088648;28;20049;-53
2022/06/25 11:06:16;;;;;;;;;;;;;;;22.86;62.02;101101.91;5090898;28;19908;-54
2022/06/25 11:08:41;;;;;;;;;;;;;;;23.00;61.10;101102.41;5088460;28;19969;-54
2022/06/25 11:11:07;;;;;;;;;;;;;;;23.14;61.97;101094.78;5086766;28;20565;-54
2022/06/25 11:13:33;;;;;;;;;;;;;;;23.30;60.07;101095.81;5089889;28;19912;-54
2022/06/25 11:15:58;;;;;;;;;;;;;;;23.10;59.06;101099.00;5091729;28;20401;-53
2022/06/25 11:18:23;;;;;;;;;;;;;;;22.92;58.74;101100.09;5082023;28;19935;-55
2022/06/25 11:20:48;;;;;;;;;;;;;;;22.80;59.64;101088.47;5082746;28;20125;-54
2022/06/25 11:23:14;;;;;;;;;;;;;;;22.82;59.79;101097.22;5086338;28;19956;-56
2022/06/25 11:28:52;;;;;;;;;;;;;;;22.93;60.08;101085.50;5089191;28;20416;-54
2022/06/25 11:31:17;;;;;;;;;;;;;;;23.00;60.51;101088.84;5089815;28;20290;-54
2022/06/25 11:33:43;;;;;;;;;;;;;;;23.03;59.11;101090.25;5084488;28;19912;-53
2022/06/25 11:36:09;;;;;;;;;;;;;;;22.86;58.52;101101.09;5081489;28;20188;-53
2022/06/25 11:38:34;;;;;;;;;;;;;;;22.76;58.29;101111.69;5084648;28;19912;-54
2022/06/25 11:40:59;;;;;;;;;;;;;;;22.73;58.83;101112.19;5082609;28;19923;-54
2022/06/25 11:43:26;;;;;;;;;;;;;;;22.73;59.26;101104.06;5086069;28;19943;-54
2022/06/25 11:45:53;;;;;;;;;;;;;;;22.80;59.42;101110.16;5087538;28;19927;-51
2022/06/25 11:48:18;;;;;;;;;;;;;;;22.76;59.32;101117.94;5081580;28;19965;-53
2022/06/25 11:50:44;;;;;;;;;;;;;;;22.77;59.22;101111.47;5083246;28;19920;-52
2022/06/25 11:53:09;;;;;;;;;;;;;;;22.84;59.19;101108.63;5080224;28;19912;-53
2022/06/25 11:55:37;;;;;;;;;;;;;;;22.88;59.14;101107.09;5085522;28;19916;-55
2022/06/25 11:58:02;;;;;;;;;;;;;;;22.89;59.21;101110.63;5085285;28;19952;-53
2022/06/25 12:00:29;;;;;;;;;;;;;;;22.99;58.61;101110.78;5083857;28;19977;-55
2022/06/25 12:03:01;;;;;;;;;;;;;;;23.00;58.40;101107.81;5082674;28;20358;-54
2022/06/25 12:05:26;;;;;;;;;;;;;;;22.99;57.39;101111.59;5083365;28;19920;-55
2022/06/25 12:07:55;;;;;;;;;;;;;;;22.91;57.53;101100.34;5083623;28;20277;-53
2022/06/25 12:10:21;;;;;;;;;;;;;;;22.87;56.99;101108.16;5086113;28;19920;-55
2022/06/25 12:12:48;;;;;;;;;;;;;;;22.83;56.48;101102.38;5079114;28;20309;-52
2022/06/25 12:15:13;;;;;;;;;;;;;;;22.74;57.08;101109.25;5083870;28;20006;-54
2022/06/25 12:17:40;;;;;;;;;;;;;;;22.77;57.45;101107.94;5088040;28;20011;-54
2022/06/25 12:20:07;;;;;;;;;;;;;;;22.78;57.54;101104.97;5080871;28;19916;-53
2022/06/25 12:22:35;;;;;;;;;;;;;;;22.82;57.92;101105.34;5085821;28;19912;-55
2022/06/25 12:25:00;;;;;;;;;;;;;;;22.86;58.50;101107.34;5088339;28;20370;-54
2022/06/25 12:27:26;;;;;;;;;;;;;;;22.91;57.95;101109.31;5089360;28;19919;-54
2022/06/25 12:29:53;;;;;;;;;;;;;;;22.94;57.68;101108.81;5089396;28;19908;-53
2022/06/25 12:32:19;;;;;;;;;;;;;;;22.92;57.87;101105.53;5087526;28;20026;-55
2022/06/25 12:34:44;;;;;;;;;;;;;;;22.89;57.75;101110.63;5088522;28;20405;-53
2022/06/25 12:37:10;;;;;;;;;;;;;;;22.86;57.92;101106.50;5088625;28;19908;-55
2022/06/25 12:39:36;;;;;;;;;;;;;;;22.80;57.82;101110.16;5088605;28;20562;-55
2022/06/25 12:42:02;;;;;;;;;;;;;;;22.72;57.45;101114.09;5088002;28;19919;-53
2022/06/25 12:44:31;;;;;;;;;;;;;;;22.70;58.01;101112.69;5089470;28;20275;-55
2022/06/25 12:46:57;;;;;;;;;;;;;;;22.74;58.21;101100.28;5087641;28;19915;-53
2022/06/25 12:49:22;;;;;;;;;;;;;;;22.82;58.17;101102.63;5089517;28;19912;-55